sensor_id;sensor_type;location;lat;lon;timestamp;temperature;humidity
15554;DHT22;7878;44.632;10.942;2022-09-09T00:01:00;24.90;99.90
15554;DHT22;7878;44.632;10.942;2022-09-09T00:03:55;24.90;99.90
15554;DHT22;7878;44.632;10.942;2022-09-09T00:06:31;24.90;99.90
15554;DHT22;7878;44.632;10.942;2022-09-09T00:09:11;24.90;99.90
15554;DHT22;7878;44.632;10.942;2022-09-09T00:14:26;24.90;99.90
15554;DHT22;7878;44.632;10.942;2022-09-09T00:17:02;24.80;99.90
15554;DHT22;7878;44.632;10.942;2022-09-09T00:19:44;24.80;99.90
15554;DHT22;7878;44.632;10.942;2022-09-09T00:22:17;24.80;99.90
15554;DHT22;7878;44.632;10.942;2022-09-09T00:24:45;24.80;99.90
15554;DHT22;7878;44.632;10.942;2022-09-09T00:27:33;24.80;99.90
15554;DHT22;7878;44.632;10.942;2022-09-09T00:33:12;24.80;99.90
15554;DHT22;7878;44.632;10.942;2022-09-09T00:35:53;24.80;99.90
15554;DHT22;7878;44.632;10.942;2022-09-09T00:38:33;24.70;99.90
15554;DHT22;7878;44.632;10.942;2022-09-09T00:41:18;24.80;99.90
15554;DHT22;7878;44.632;10.942;2022-09-09T00:43:56;24.80;99.90
15554;DHT22;7878;44.632;10.942;2022-09-09T00:46:47;24.80;99.90
15554;DHT22;7878;44.632;10.942;2022-09-09T00:54:52;24.70;99.90
15554;DHT22;7878;44.632;10.942;2022-09-09T00:57:29;24.70;99.90
15554;DHT22;7878;44.632;10.942;2022-09-09T01:03:07;24.60;99.90
15554;DHT22;7878;44.632;10.942;2022-09-09T01:06:02;24.60;99.90
15554;DHT22;7878;44.632;10.942;2022-09-09T01:09:16;24.60;99.90
15554;DHT22;7878;44.632;10.942;2022-09-09T01:11:52;24.60;99.90
15554;DHT22;7878;44.632;10.942;2022-09-09T01:17:24;24.60;99.90
15554;DHT22;7878;44.632;10.942;2022-09-09T01:20:37;24.50;99.90
15554;DHT22;7878;44.632;10.942;2022-09-09T01:23:30;24.50;99.90
15554;DHT22;7878;44.632;10.942;2022-09-09T01:27:08;24.50;99.90
15554;DHT22;7878;44.632;10.942;2022-09-09T01:29:08;24.50;99.90
15554;DHT22;7878;44.632;10.942;2022-09-09T01:34:16;24.40;99.90
15554;DHT22;7878;44.632;10.942;2022-09-09T01:39:26;24.30;99.90
15554;DHT22;7878;44.632;10.942;2022-09-09T01:41:53;24.30;99.90
15554;DHT22;7878;44.632;10.942;2022-09-09T01:44:19;24.30;99.90
15554;DHT22;7878;44.632;10.942;2022-09-09T01:46:45;24.30;99.90
15554;DHT22;7878;44.632;10.942;2022-09-09T01:49:11;24.30;99.90
15554;DHT22;7878;44.632;10.942;2022-09-09T01:51:38;24.30;99.90
15554;DHT22;7878;44.632;10.942;2022-09-09T01:54:05;24.30;99.90
15554;DHT22;7878;44.632;10.942;2022-09-09T02:01:56;24.30;99.90
15554;DHT22;7878;44.632;10.942;2022-09-09T02:04:38;24.30;99.90
15554;DHT22;7878;44.632;10.942;2022-09-09T02:07:28;24.20;99.90
15554;DHT22;7878;44.632;10.942;2022-09-09T02:13:09;24.20;99.90
15554;DHT22;7878;44.632;10.942;2022-09-09T02:15:37;24.30;99.90
15554;DHT22;7878;44.632;10.942;2022-09-09T02:18:07;24.20;99.90
15554;DHT22;7878;44.632;10.942;2022-09-09T02:20:36;24.20;99.90
15554;DHT22;7878;44.632;10.942;2022-09-09T02:23:04;24.30;99.90
15554;DHT22;7878;44.632;10.942;2022-09-09T02:25:30;24.30;99.90
15554;DHT22;7878;44.632;10.942;2022-09-09T02:27:56;24.20;99.90
15554;DHT22;7878;44.632;10.942;2022-09-09T02:30:28;24.30;99.90
15554;DHT22;7878;44.632;10.942;2022-09-09T02:32:56;24.20;99.90
15554;DHT22;7878;44.632;10.942;2022-09-09T02:35:24;24.20;99.90
15554;DHT22;7878;44.632;10.942;2022-09-09T02:37:53;24.10;99.90
15554;DHT22;7878;44.632;10.942;2022-09-09T02:40:21;24.00;99.90
15554;DHT22;7878;44.632;10.942;2022-09-09T02:42:48;23.90;99.90
15554;DHT22;7878;44.632;10.942;2022-09-09T02:45:22;23.90;99.90
15554;DHT22;7878;44.632;10.942;2022-09-09T02:48:20;23.80;99.90
15554;DHT22;7878;44.632;10.942;2022-09-09T02:53:49;23.80;99.90
15554;DHT22;7878;44.632;10.942;2022-09-09T02:56:21;23.70;99.90
15554;DHT22;7878;44.632;10.942;2022-09-09T02:58:49;23.70;99.90
15554;DHT22;7878;44.632;10.942;2022-09-09T03:01:17;23.70;99.90
15554;DHT22;7878;44.632;10.942;2022-09-09T03:03:42;23.70;99.90
15554;DHT22;7878;44.632;10.942;2022-09-09T03:06:09;23.70;99.90
15554;DHT22;7878;44.632;10.942;2022-09-09T03:08:37;23.70;99.90
15554;DHT22;7878;44.632;10.942;2022-09-09T03:11:03;23.70;99.90
15554;DHT22;7878;44.632;10.942;2022-09-09T03:13:29;23.70;99.90
15554;DHT22;7878;44.632;10.942;2022-09-09T03:15:55;23.70;99.90
15554;DHT22;7878;44.632;10.942;2022-09-09T03:18:21;23.70;99.90
15554;DHT22;7878;44.632;10.942;2022-09-09T03:20:46;23.70;99.90
15554;DHT22;7878;44.632;10.942;2022-09-09T03:23:16;23.70;99.90
15554;DHT22;7878;44.632;10.942;2022-09-09T03:25:51;23.60;99.90
15554;DHT22;7878;44.632;10.942;2022-09-09T03:28:17;23.60;99.90
15554;DHT22;7878;44.632;10.942;2022-09-09T03:30:43;23.60;99.90
15554;DHT22;7878;44.632;10.942;2022-09-09T03:33:09;23.60;99.90
15554;DHT22;7878;44.632;10.942;2022-09-09T03:35:34;23.60;99.90
15554;DHT22;7878;44.632;10.942;2022-09-09T03:38:00;23.60;99.90
15554;DHT22;7878;44.632;10.942;2022-09-09T03:40:26;23.60;99.90
15554;DHT22;7878;44.632;10.942;2022-09-09T03:42:52;23.60;99.90
15554;DHT22;7878;44.632;10.942;2022-09-09T03:45:17;23.60;99.90
15554;DHT22;7878;44.632;10.942;2022-09-09T03:47:43;23.60;99.90
15554;DHT22;7878;44.632;10.942;2022-09-09T03:50:09;23.50;99.90
15554;DHT22;7878;44.632;10.942;2022-09-09T03:52:40;23.50;99.90
15554;DHT22;7878;44.632;10.942;2022-09-09T03:55:06;23.50;99.90
15554;DHT22;7878;44.632;10.942;2022-09-09T03:57:32;23.60;99.90
15554;DHT22;7878;44.632;10.942;2022-09-09T04:00:04;23.50;99.90
15554;DHT22;7878;44.632;10.942;2022-09-09T04:02:30;23.50;99.90
15554;DHT22;7878;44.632;10.942;2022-09-09T04:04:56;23.40;99.90
15554;DHT22;7878;44.632;10.942;2022-09-09T04:07:21;23.30;99.90
15554;DHT22;7878;44.632;10.942;2022-09-09T04:09:47;23.30;99.90
15554;DHT22;7878;44.632;10.942;2022-09-09T04:12:13;23.30;99.90
15554;DHT22;7878;44.632;10.942;2022-09-09T04:14:39;23.30;99.90
15554;DHT22;7878;44.632;10.942;2022-09-09T04:17:05;23.30;99.90
15554;DHT22;7878;44.632;10.942;2022-09-09T04:19:32;23.20;99.90
15554;DHT22;7878;44.632;10.942;2022-09-09T04:21:58;23.20;99.90
15554;DHT22;7878;44.632;10.942;2022-09-09T04:24:24;23.10;99.90
15554;DHT22;7878;44.632;10.942;2022-09-09T04:26:50;23.10;99.90
15554;DHT22;7878;44.632;10.942;2022-09-09T04:29:16;23.00;99.90
15554;DHT22;7878;44.632;10.942;2022-09-09T04:31:42;23.00;99.90
15554;DHT22;7878;44.632;10.942;2022-09-09T04:34:09;23.00;99.90
15554;DHT22;7878;44.632;10.942;2022-09-09T04:36:35;23.00;99.90
15554;DHT22;7878;44.632;10.942;2022-09-09T04:39:01;22.90;99.90
15554;DHT22;7878;44.632;10.942;2022-09-09T04:41:27;22.90;99.90
15554;DHT22;7878;44.632;10.942;2022-09-09T04:43:52;23.00;99.90
15554;DHT22;7878;44.632;10.942;2022-09-09T04:46:20;23.00;99.90
15554;DHT22;7878;44.632;10.942;2022-09-09T04:48:45;23.00;99.90
15554;DHT22;7878;44.632;10.942;2022-09-09T04:51:13;23.10;99.90
15554;DHT22;7878;44.632;10.942;2022-09-09T04:53:39;23.10;99.90
15554;DHT22;7878;44.632;10.942;2022-09-09T04:56:14;23.10;99.90
15554;DHT22;7878;44.632;10.942;2022-09-09T04:58:40;23.10;99.90
15554;DHT22;7878;44.632;10.942;2022-09-09T05:01:20;23.10;99.90
15554;DHT22;7878;44.632;10.942;2022-09-09T05:03:50;23.20;99.90
15554;DHT22;7878;44.632;10.942;2022-09-09T05:06:17;23.20;99.90
15554;DHT22;7878;44.632;10.942;2022-09-09T05:08:44;23.20;99.90
15554;DHT22;7878;44.632;10.942;2022-09-09T05:13:43;23.20;99.90
15554;DHT22;7878;44.632;10.942;2022-09-09T05:16:09;23.20;99.90
15554;DHT22;7878;44.632;10.942;2022-09-09T05:18:37;23.20;99.90
15554;DHT22;7878;44.632;10.942;2022-09-09T05:21:03;23.20;99.90
15554;DHT22;7878;44.632;10.942;2022-09-09T05:23:29;23.20;99.90
15554;DHT22;7878;44.632;10.942;2022-09-09T05:25:58;23.20;99.90
15554;DHT22;7878;44.632;10.942;2022-09-09T05:28:25;23.20;99.90
15554;DHT22;7878;44.632;10.942;2022-09-09T05:30:58;23.20;99.90
15554;DHT22;7878;44.632;10.942;2022-09-09T05:33:26;23.20;99.90
15554;DHT22;7878;44.632;10.942;2022-09-09T05:35:59;23.20;99.90
15554;DHT22;7878;44.632;10.942;2022-09-09T05:38:25;23.20;99.90
15554;DHT22;7878;44.632;10.942;2022-09-09T05:40:52;23.20;99.90
15554;DHT22;7878;44.632;10.942;2022-09-09T05:43:18;23.20;99.90
15554;DHT22;7878;44.632;10.942;2022-09-09T05:45:58;23.10;99.90
15554;DHT22;7878;44.632;10.942;2022-09-09T05:48:28;23.10;99.90
15554;DHT22;7878;44.632;10.942;2022-09-09T05:50:55;23.10;99.90
15554;DHT22;7878;44.632;10.942;2022-09-09T05:53:20;23.00;99.90
15554;DHT22;7878;44.632;10.942;2022-09-09T05:55:46;23.00;99.90
15554;DHT22;7878;44.632;10.942;2022-09-09T05:58:13;23.00;99.90
15554;DHT22;7878;44.632;10.942;2022-09-09T06:00:40;23.10;99.90
15554;DHT22;7878;44.632;10.942;2022-09-09T06:03:05;23.10;99.90
15554;DHT22;7878;44.632;10.942;2022-09-09T06:05:31;23.10;99.90
15554;DHT22;7878;44.632;10.942;2022-09-09T06:07:56;23.20;99.90
15554;DHT22;7878;44.632;10.942;2022-09-09T06:10:22;23.20;99.90
15554;DHT22;7878;44.632;10.942;2022-09-09T06:12:48;23.20;99.90
15554;DHT22;7878;44.632;10.942;2022-09-09T06:15:14;23.20;99.90
15554;DHT22;7878;44.632;10.942;2022-09-09T06:17:39;23.20;99.90
15554;DHT22;7878;44.632;10.942;2022-09-09T06:20:07;23.20;99.90
15554;DHT22;7878;44.632;10.942;2022-09-09T06:22:34;23.20;99.90
15554;DHT22;7878;44.632;10.942;2022-09-09T06:25:00;23.30;99.90
15554;DHT22;7878;44.632;10.942;2022-09-09T06:27:27;23.30;99.90
15554;DHT22;7878;44.632;10.942;2022-09-09T06:29:54;23.30;99.90
15554;DHT22;7878;44.632;10.942;2022-09-09T06:32:19;23.40;99.90
15554;DHT22;7878;44.632;10.942;2022-09-09T06:34:45;23.40;99.90
15554;DHT22;7878;44.632;10.942;2022-09-09T06:37:10;23.40;99.90
15554;DHT22;7878;44.632;10.942;2022-09-09T06:39:36;23.40;99.90
15554;DHT22;7878;44.632;10.942;2022-09-09T06:42:02;23.40;99.90
15554;DHT22;7878;44.632;10.942;2022-09-09T06:44:28;23.50;99.90
15554;DHT22;7878;44.632;10.942;2022-09-09T06:46:59;23.50;99.90
15554;DHT22;7878;44.632;10.942;2022-09-09T06:49:25;23.60;99.90
15554;DHT22;7878;44.632;10.942;2022-09-09T06:51:50;23.60;99.90
15554;DHT22;7878;44.632;10.942;2022-09-09T06:54:17;23.60;99.90
15554;DHT22;7878;44.632;10.942;2022-09-09T06:56:43;23.70;99.90
15554;DHT22;7878;44.632;10.942;2022-09-09T06:59:11;23.80;99.90
15554;DHT22;7878;44.632;10.942;2022-09-09T07:01:42;23.90;99.90
15554;DHT22;7878;44.632;10.942;2022-09-09T07:04:09;23.90;99.90
15554;DHT22;7878;44.632;10.942;2022-09-09T07:06:41;24.00;99.90
15554;DHT22;7878;44.632;10.942;2022-09-09T07:09:11;24.00;99.90
15554;DHT22;7878;44.632;10.942;2022-09-09T07:11:43;24.00;99.90
15554;DHT22;7878;44.632;10.942;2022-09-09T07:14:10;24.10;99.90
15554;DHT22;7878;44.632;10.942;2022-09-09T07:16:40;24.10;99.90
15554;DHT22;7878;44.632;10.942;2022-09-09T07:19:06;24.20;99.90
15554;DHT22;7878;44.632;10.942;2022-09-09T07:21:32;24.20;99.90
15554;DHT22;7878;44.632;10.942;2022-09-09T07:23:58;24.30;99.90
15554;DHT22;7878;44.632;10.942;2022-09-09T07:26:27;24.30;99.90
15554;DHT22;7878;44.632;10.942;2022-09-09T07:28:54;24.10;99.90
15554;DHT22;7878;44.632;10.942;2022-09-09T07:31:33;24.00;99.90
15554;DHT22;7878;44.632;10.942;2022-09-09T07:33:59;24.00;99.90
15554;DHT22;7878;44.632;10.942;2022-09-09T07:36:30;23.90;99.90
15554;DHT22;7878;44.632;10.942;2022-09-09T07:38:59;23.90;99.90
15554;DHT22;7878;44.632;10.942;2022-09-09T07:41:38;23.80;99.90
15554;DHT22;7878;44.632;10.942;2022-09-09T07:44:10;23.90;99.90
15554;DHT22;7878;44.632;10.942;2022-09-09T07:46:37;23.80;99.90
15554;DHT22;7878;44.632;10.942;2022-09-09T07:49:05;23.80;99.90
15554;DHT22;7878;44.632;10.942;2022-09-09T07:51:33;23.80;99.90
15554;DHT22;7878;44.632;10.942;2022-09-09T07:54:02;23.90;99.90
15554;DHT22;7878;44.632;10.942;2022-09-09T07:56:29;24.00;99.90
15554;DHT22;7878;44.632;10.942;2022-09-09T07:58:55;24.00;99.90
15554;DHT22;7878;44.632;10.942;2022-09-09T08:01:30;24.10;99.90
15554;DHT22;7878;44.632;10.942;2022-09-09T08:03:59;24.20;99.90
15554;DHT22;7878;44.632;10.942;2022-09-09T08:06:27;24.30;99.90
15554;DHT22;7878;44.632;10.942;2022-09-09T08:08:54;24.40;99.90
15554;DHT22;7878;44.632;10.942;2022-09-09T08:11:21;24.50;99.90
15554;DHT22;7878;44.632;10.942;2022-09-09T08:13:49;24.60;99.90
15554;DHT22;7878;44.632;10.942;2022-09-09T08:16:18;24.70;99.90
15554;DHT22;7878;44.632;10.942;2022-09-09T08:18:44;24.80;99.90
15554;DHT22;7878;44.632;10.942;2022-09-09T08:21:16;25.00;99.90
15554;DHT22;7878;44.632;10.942;2022-09-09T08:23:44;25.10;99.90
15554;DHT22;7878;44.632;10.942;2022-09-09T08:26:16;25.40;99.90
15554;DHT22;7878;44.632;10.942;2022-09-09T08:28:43;26.00;99.90
15554;DHT22;7878;44.632;10.942;2022-09-09T08:31:16;26.30;99.90
15554;DHT22;7878;44.632;10.942;2022-09-09T08:33:42;26.30;99.90
15554;DHT22;7878;44.632;10.942;2022-09-09T08:36:13;26.30;99.90
15554;DHT22;7878;44.632;10.942;2022-09-09T08:38:42;26.40;99.90
15554;DHT22;7878;44.632;10.942;2022-09-09T08:43:45;26.50;99.90
15554;DHT22;7878;44.632;10.942;2022-09-09T08:46:28;26.50;99.90
15554;DHT22;7878;44.632;10.942;2022-09-09T08:51:55;26.40;99.90
15554;DHT22;7878;44.632;10.942;2022-09-09T08:54:23;26.30;99.90
15554;DHT22;7878;44.632;10.942;2022-09-09T08:56:49;26.40;99.90
15554;DHT22;7878;44.632;10.942;2022-09-09T08:59:17;26.60;99.90
15554;DHT22;7878;44.632;10.942;2022-09-09T09:03:05;26.70;99.90
15554;DHT22;7878;44.632;10.942;2022-09-09T09:13:14;27.60;99.90
15554;DHT22;7878;44.632;10.942;2022-09-09T09:15:42;27.50;99.90
15554;DHT22;7878;44.632;10.942;2022-09-09T09:18:11;27.40;99.90
15554;DHT22;7878;44.632;10.942;2022-09-09T09:23:25;27.40;99.90
15554;DHT22;7878;44.632;10.942;2022-09-09T09:25:56;27.40;99.90
15554;DHT22;7878;44.632;10.942;2022-09-09T09:28:27;27.30;99.90
15554;DHT22;7878;44.632;10.942;2022-09-09T09:31:01;27.30;99.90
15554;DHT22;7878;44.632;10.942;2022-09-09T09:35:54;27.30;99.90
15554;DHT22;7878;44.632;10.942;2022-09-09T09:38:25;27.40;99.90
15554;DHT22;7878;44.632;10.942;2022-09-09T09:40:54;27.40;99.90
15554;DHT22;7878;44.632;10.942;2022-09-09T09:43:34;27.50;99.90
15554;DHT22;7878;44.632;10.942;2022-09-09T09:46:03;27.50;99.90
15554;DHT22;7878;44.632;10.942;2022-09-09T09:48:29;27.50;99.90
15554;DHT22;7878;44.632;10.942;2022-09-09T09:51:02;27.50;99.90
15554;DHT22;7878;44.632;10.942;2022-09-09T09:53:32;27.50;99.90
15554;DHT22;7878;44.632;10.942;2022-09-09T09:56:09;27.50;99.90
15554;DHT22;7878;44.632;10.942;2022-09-09T10:01:33;27.70;99.90
15554;DHT22;7878;44.632;10.942;2022-09-09T10:06:46;27.90;99.90
15554;DHT22;7878;44.632;10.942;2022-09-09T10:09:31;28.60;99.90
15554;DHT22;7878;44.632;10.942;2022-09-09T10:17:59;28.70;99.90
15554;DHT22;7878;44.632;10.942;2022-09-09T10:21:03;28.50;99.90
15554;DHT22;7878;44.632;10.942;2022-09-09T10:26:40;28.70;99.90
15554;DHT22;7878;44.632;10.942;2022-09-09T10:34:38;28.60;99.90
15554;DHT22;7878;44.632;10.942;2022-09-09T10:37:22;28.60;99.90
15554;DHT22;7878;44.632;10.942;2022-09-09T10:40:03;28.60;99.90
15554;DHT22;7878;44.632;10.942;2022-09-09T10:42:31;28.70;99.90
15554;DHT22;7878;44.632;10.942;2022-09-09T10:45:20;28.90;99.90
15554;DHT22;7878;44.632;10.942;2022-09-09T10:48:03;29.90;99.90
15554;DHT22;7878;44.632;10.942;2022-09-09T10:53:12;31.40;99.90
15554;DHT22;7878;44.632;10.942;2022-09-09T10:55:47;33.20;99.90
15554;DHT22;7878;44.632;10.942;2022-09-09T10:58:19;33.70;99.90
15554;DHT22;7878;44.632;10.942;2022-09-09T11:00:54;34.60;99.90
15554;DHT22;7878;44.632;10.942;2022-09-09T11:03:28;34.50;99.90
15554;DHT22;7878;44.632;10.942;2022-09-09T11:06:06;34.30;99.90
15554;DHT22;7878;44.632;10.942;2022-09-09T11:08:38;34.10;99.90
15554;DHT22;7878;44.632;10.942;2022-09-09T11:11:16;34.30;99.90
15554;DHT22;7878;44.632;10.942;2022-09-09T11:16:28;36.20;99.90
15554;DHT22;7878;44.632;10.942;2022-09-09T11:21:49;40.50;99.90
15554;DHT22;7878;44.632;10.942;2022-09-09T11:24:23;41.90;99.90
15554;DHT22;7878;44.632;10.942;2022-09-09T11:30:19;42.90;92.30
15554;DHT22;7878;44.632;10.942;2022-09-09T11:38:45;42.40;90.50
15554;DHT22;7878;44.632;10.942;2022-09-09T11:41:12;41.50;98.10
15554;DHT22;7878;44.632;10.942;2022-09-09T11:43:39;40.70;98.10
15554;DHT22;7878;44.632;10.942;2022-09-09T11:46:06;39.60;98.20
15554;DHT22;7878;44.632;10.942;2022-09-09T11:48:42;38.40;99.60
15554;DHT22;7878;44.632;10.942;2022-09-09T11:54:28;36.50;99.90
15554;DHT22;7878;44.632;10.942;2022-09-09T11:56:47;35.70;94.90
15554;DHT22;7878;44.632;10.942;2022-09-09T12:07:00;33.60;97.90
15554;DHT22;7878;44.632;10.942;2022-09-09T12:09:42;33.40;98.90
15554;DHT22;7878;44.632;10.942;2022-09-09T12:19:42;32.60;99.00
15554;DHT22;7878;44.632;10.942;2022-09-09T12:22:34;32.30;99.90
15554;DHT22;7878;44.632;10.942;2022-09-09T12:28:06;31.90;99.90
15554;DHT22;7878;44.632;10.942;2022-09-09T12:31:00;31.80;99.90
15554;DHT22;7878;44.632;10.942;2022-09-09T12:33:37;31.70;99.90
15554;DHT22;7878;44.632;10.942;2022-09-09T12:36:04;31.50;99.90
15554;DHT22;7878;44.632;10.942;2022-09-09T12:38:36;31.50;99.90
15554;DHT22;7878;44.632;10.942;2022-09-09T12:41:02;31.40;99.90
15554;DHT22;7878;44.632;10.942;2022-09-09T12:43:28;31.50;99.90
15554;DHT22;7878;44.632;10.942;2022-09-09T12:46:06;31.50;99.90
15554;DHT22;7878;44.632;10.942;2022-09-09T12:48:39;31.40;99.90
15554;DHT22;7878;44.632;10.942;2022-09-09T12:51:18;31.40;99.90
15554;DHT22;7878;44.632;10.942;2022-09-09T12:53:44;31.30;99.90
15554;DHT22;7878;44.632;10.942;2022-09-09T12:56:19;31.20;99.90
15554;DHT22;7878;44.632;10.942;2022-09-09T12:58:47;31.20;99.90
15554;DHT22;7878;44.632;10.942;2022-09-09T13:01:24;31.10;99.90
15554;DHT22;7878;44.632;10.942;2022-09-09T13:03:50;31.00;99.90
15554;DHT22;7878;44.632;10.942;2022-09-09T13:06:28;31.00;99.90
15554;DHT22;7878;44.632;10.942;2022-09-09T13:08:56;31.00;99.90
15554;DHT22;7878;44.632;10.942;2022-09-09T13:13:55;31.00;99.90
15554;DHT22;7878;44.632;10.942;2022-09-09T13:16:31;30.90;99.90
15554;DHT22;7878;44.632;10.942;2022-09-09T13:19:01;30.90;99.90
15554;DHT22;7878;44.632;10.942;2022-09-09T13:21:36;30.80;99.90
15554;DHT22;7878;44.632;10.942;2022-09-09T13:24:04;30.80;99.90
15554;DHT22;7878;44.632;10.942;2022-09-09T13:26:33;30.80;99.90
15554;DHT22;7878;44.632;10.942;2022-09-09T13:29:16;30.80;99.90
15554;DHT22;7878;44.632;10.942;2022-09-09T13:31:46;30.70;99.90
15554;DHT22;7878;44.632;10.942;2022-09-09T13:34:32;30.60;99.90
15554;DHT22;7878;44.632;10.942;2022-09-09T13:37:03;30.50;99.90
15554;DHT22;7878;44.632;10.942;2022-09-09T13:39:33;30.40;99.90
15554;DHT22;7878;44.632;10.942;2022-09-09T13:42:00;30.40;99.90
15554;DHT22;7878;44.632;10.942;2022-09-09T13:44:34;30.30;99.90
15554;DHT22;7878;44.632;10.942;2022-09-09T13:47:06;30.30;99.90
15554;DHT22;7878;44.632;10.942;2022-09-09T13:49:32;30.30;99.90
15554;DHT22;7878;44.632;10.942;2022-09-09T13:52:13;30.20;99.90
15554;DHT22;7878;44.632;10.942;2022-09-09T13:54:40;30.10;99.90
15554;DHT22;7878;44.632;10.942;2022-09-09T13:57:16;30.10;99.90
15554;DHT22;7878;44.632;10.942;2022-09-09T13:59:44;30.10;99.90
15554;DHT22;7878;44.632;10.942;2022-09-09T14:02:09;30.10;99.90
15554;DHT22;7878;44.632;10.942;2022-09-09T14:04:35;30.10;99.90
15554;DHT22;7878;44.632;10.942;2022-09-09T14:07:01;30.10;99.90
15554;DHT22;7878;44.632;10.942;2022-09-09T14:09:28;30.10;99.90
15554;DHT22;7878;44.632;10.942;2022-09-09T14:11:54;30.10;99.90
15554;DHT22;7878;44.632;10.942;2022-09-09T14:14:20;30.10;99.90
15554;DHT22;7878;44.632;10.942;2022-09-09T14:16:46;30.10;99.90
15554;DHT22;7878;44.632;10.942;2022-09-09T14:19:12;30.10;99.90
15554;DHT22;7878;44.632;10.942;2022-09-09T14:21:38;30.00;99.90
15554;DHT22;7878;44.632;10.942;2022-09-09T14:24:04;30.10;99.90
15554;DHT22;7878;44.632;10.942;2022-09-09T14:26:30;30.10;99.90
15554;DHT22;7878;44.632;10.942;2022-09-09T14:28:56;30.10;99.90
15554;DHT22;7878;44.632;10.942;2022-09-09T14:31:22;30.10;99.90
15554;DHT22;7878;44.632;10.942;2022-09-09T14:33:48;30.10;99.90
15554;DHT22;7878;44.632;10.942;2022-09-09T14:36:16;30.00;99.90
15554;DHT22;7878;44.632;10.942;2022-09-09T14:38:42;30.00;99.90
15554;DHT22;7878;44.632;10.942;2022-09-09T14:41:13;30.00;99.90
15554;DHT22;7878;44.632;10.942;2022-09-09T14:43:42;30.00;99.90
15554;DHT22;7878;44.632;10.942;2022-09-09T14:46:10;29.90;99.90
15554;DHT22;7878;44.632;10.942;2022-09-09T14:48:36;29.90;99.90
15554;DHT22;7878;44.632;10.942;2022-09-09T14:51:12;29.90;99.90
15554;DHT22;7878;44.632;10.942;2022-09-09T14:53:39;29.90;99.90
15554;DHT22;7878;44.632;10.942;2022-09-09T14:56:09;29.80;99.90
15554;DHT22;7878;44.632;10.942;2022-09-09T14:58:36;29.80;99.90
15554;DHT22;7878;44.632;10.942;2022-09-09T15:01:06;29.70;99.90
15554;DHT22;7878;44.632;10.942;2022-09-09T15:03:32;29.70;99.90
15554;DHT22;7878;44.632;10.942;2022-09-09T15:05:58;29.70;99.90
15554;DHT22;7878;44.632;10.942;2022-09-09T15:08:29;29.70;99.90
15554;DHT22;7878;44.632;10.942;2022-09-09T15:10:59;29.60;99.90
15554;DHT22;7878;44.632;10.942;2022-09-09T15:13:26;29.60;99.90
15554;DHT22;7878;44.632;10.942;2022-09-09T15:15:52;29.60;99.90
15554;DHT22;7878;44.632;10.942;2022-09-09T15:18:20;29.60;99.90
15554;DHT22;7878;44.632;10.942;2022-09-09T15:20:46;29.60;99.90
15554;DHT22;7878;44.632;10.942;2022-09-09T15:23:13;29.60;99.90
15554;DHT22;7878;44.632;10.942;2022-09-09T15:26:00;29.60;99.90
15554;DHT22;7878;44.632;10.942;2022-09-09T15:28:25;29.60;99.90
15554;DHT22;7878;44.632;10.942;2022-09-09T15:30:52;29.60;99.90
15554;DHT22;7878;44.632;10.942;2022-09-09T15:33:19;29.70;99.90
15554;DHT22;7878;44.632;10.942;2022-09-09T15:35:45;29.70;99.90
15554;DHT22;7878;44.632;10.942;2022-09-09T15:38:11;29.60;99.90
15554;DHT22;7878;44.632;10.942;2022-09-09T15:40:39;29.60;99.90
15554;DHT22;7878;44.632;10.942;2022-09-09T15:43:05;29.50;99.90
15554;DHT22;7878;44.632;10.942;2022-09-09T15:45:32;29.60;99.90
15554;DHT22;7878;44.632;10.942;2022-09-09T15:48:02;29.60;99.90
15554;DHT22;7878;44.632;10.942;2022-09-09T15:50:28;29.60;99.90
15554;DHT22;7878;44.632;10.942;2022-09-09T15:52:57;29.60;99.90
15554;DHT22;7878;44.632;10.942;2022-09-09T15:55:22;29.60;99.90
15554;DHT22;7878;44.632;10.942;2022-09-09T15:57:51;29.50;99.90
15554;DHT22;7878;44.632;10.942;2022-09-09T16:00:20;29.50;99.90
15554;DHT22;7878;44.632;10.942;2022-09-09T16:02:48;29.50;99.90
15554;DHT22;7878;44.632;10.942;2022-09-09T16:05:14;29.50;99.90
15554;DHT22;7878;44.632;10.942;2022-09-09T16:07:39;29.40;99.90
15554;DHT22;7878;44.632;10.942;2022-09-09T16:10:08;29.40;99.90
15554;DHT22;7878;44.632;10.942;2022-09-09T16:12:34;29.40;99.90
15554;DHT22;7878;44.632;10.942;2022-09-09T16:14:59;29.30;99.90
15554;DHT22;7878;44.632;10.942;2022-09-09T16:17:25;29.30;99.90
15554;DHT22;7878;44.632;10.942;2022-09-09T16:19:52;29.30;99.90
15554;DHT22;7878;44.632;10.942;2022-09-09T16:22:20;29.30;99.90
15554;DHT22;7878;44.632;10.942;2022-09-09T16:24:45;29.30;99.90
15554;DHT22;7878;44.632;10.942;2022-09-09T16:27:11;29.30;99.90
15554;DHT22;7878;44.632;10.942;2022-09-09T16:29:37;29.00;99.90
15554;DHT22;7878;44.632;10.942;2022-09-09T16:32:02;28.90;99.90
15554;DHT22;7878;44.632;10.942;2022-09-09T16:34:28;28.80;99.90
15554;DHT22;7878;44.632;10.942;2022-09-09T16:36:54;28.80;99.90
15554;DHT22;7878;44.632;10.942;2022-09-09T16:39:20;28.80;99.90
15554;DHT22;7878;44.632;10.942;2022-09-09T16:41:47;28.70;99.90
15554;DHT22;7878;44.632;10.942;2022-09-09T16:44:15;28.60;99.90
15554;DHT22;7878;44.632;10.942;2022-09-09T16:46:42;28.50;99.90
15554;DHT22;7878;44.632;10.942;2022-09-09T16:49:10;28.50;99.90
15554;DHT22;7878;44.632;10.942;2022-09-09T16:51:44;28.40;99.90
15554;DHT22;7878;44.632;10.942;2022-09-09T16:54:12;28.40;99.90
15554;DHT22;7878;44.632;10.942;2022-09-09T16:56:40;28.30;99.90
15554;DHT22;7878;44.632;10.942;2022-09-09T16:59:12;28.30;99.90
15554;DHT22;7878;44.632;10.942;2022-09-09T17:01:39;28.40;99.90
15554;DHT22;7878;44.632;10.942;2022-09-09T17:04:11;28.30;99.90
15554;DHT22;7878;44.632;10.942;2022-09-09T17:06:38;28.30;99.90
15554;DHT22;7878;44.632;10.942;2022-09-09T17:09:07;28.30;99.90
15554;DHT22;7878;44.632;10.942;2022-09-09T17:11:33;28.30;99.90
15554;DHT22;7878;44.632;10.942;2022-09-09T17:13:59;28.30;99.90
15554;DHT22;7878;44.632;10.942;2022-09-09T17:16:28;28.30;99.90
15554;DHT22;7878;44.632;10.942;2022-09-09T17:18:55;28.20;99.90
15554;DHT22;7878;44.632;10.942;2022-09-09T17:21:24;28.20;99.90
15554;DHT22;7878;44.632;10.942;2022-09-09T17:23:51;28.10;99.90
15554;DHT22;7878;44.632;10.942;2022-09-09T17:26:20;28.10;99.90
15554;DHT22;7878;44.632;10.942;2022-09-09T17:28:46;28.10;99.90
15554;DHT22;7878;44.632;10.942;2022-09-09T17:31:15;28.10;99.90
15554;DHT22;7878;44.632;10.942;2022-09-09T17:33:43;28.00;99.90
15554;DHT22;7878;44.632;10.942;2022-09-09T17:36:15;28.00;99.90
15554;DHT22;7878;44.632;10.942;2022-09-09T17:38:41;27.90;99.90
15554;DHT22;7878;44.632;10.942;2022-09-09T17:43:40;27.90;99.90
15554;DHT22;7878;44.632;10.942;2022-09-09T17:46:25;27.80;99.90
15554;DHT22;7878;44.632;10.942;2022-09-09T17:48:57;27.70;99.90